Terminal Aerodrome Forecast
Issued by NWS Bismarck, ND

Home | Current Version | Previous Version | Graphics & Text | Print | Product List | Glossary On
Versions: 1 2 3 4 5 6 7 8 9 10 11 12 13 14 15 16 17 18 19 20 21 22 23 24 25
000
FTUS43 KBIS 311600 AAC
TAFISN
TAF AMD
KISN 311643Z 3117/0112 13015KT P6SM SCT015 SCT250
     FM311800 14017G25KT P6SM FEW020 SCT250
     FM010000 13009KT P6SM SCT250=

USA.gov is the U.S. government's official web portal to all federal, state and local government web resources and services.